createdAt,value
2022-11-14T00:00:49.885Z,15.60
2022-11-14T00:03:36.345Z,13.88
2022-11-14T00:06:22.511Z,14.40
2022-11-14T00:09:08.751Z,15.77
2022-11-14T00:11:55.284Z,15.90
2022-11-14T00:14:43.306Z,16.10
2022-11-14T00:17:29.722Z,16.65
2022-11-14T00:20:16.383Z,17.25
2022-11-14T00:23:02.464Z,15.85
2022-11-14T00:25:49.163Z,13.85
2022-11-14T00:28:35.795Z,12.48
2022-11-14T00:31:23.557Z,14.68
2022-11-14T00:34:10.152Z,15.38
2022-11-14T00:36:56.567Z,13.52
2022-11-14T00:39:42.651Z,13.35
2022-11-14T00:42:28.850Z,12.40
2022-11-14T00:45:15.133Z,14.82
2022-11-14T00:48:02.641Z,14.48
2022-11-14T00:50:48.828Z,14.30
2022-11-14T00:53:35.130Z,12.45
2022-11-14T00:56:21.137Z,13.13
2022-11-14T00:59:07.646Z,16.80
2022-11-14T01:01:57.717Z,13.77
2022-11-14T01:04:45.635Z,14.13
2022-11-14T01:07:31.735Z,15.82
2022-11-14T01:10:18.687Z,14.32
2022-11-14T01:13:05.145Z,13.32
2022-11-14T01:15:52.132Z,15.88
2022-11-14T01:18:39.122Z,14.05
2022-11-14T01:21:27.074Z,15.48
2022-11-14T01:24:13.131Z,14.95
2022-11-14T01:26:59.376Z,14.25
2022-11-14T01:29:45.489Z,17.73
2022-11-14T01:32:31.435Z,14.70
2022-11-14T01:35:17.700Z,13.68
2022-11-14T01:38:06.366Z,14.27
2022-11-14T01:40:52.396Z,16.55
2022-11-14T01:43:39.817Z,13.93
2022-11-14T01:46:30.073Z,16.20
2022-11-14T01:49:20.264Z,17.27
2022-11-14T01:52:10.506Z,19.40
2022-11-14T01:55:01.120Z,16.55
2022-11-14T01:57:49.253Z,19.02
2022-11-14T02:00:35.541Z,17.08
2022-11-14T02:03:22.307Z,18.42
2022-11-14T02:06:10.481Z,15.15
2022-11-14T02:08:58.887Z,17.80
2022-11-14T02:11:47.444Z,18.30
2022-11-14T02:14:35.509Z,16.88
2022-11-14T02:17:29.541Z,17.35
2022-11-14T02:20:23.262Z,17.90
2022-11-14T02:23:10.817Z,15.13
2022-11-14T02:25:57.053Z,16.92
2022-11-14T02:28:43.180Z,18.27
2022-11-14T02:31:29.496Z,15.23
2022-11-14T02:34:19.787Z,17.20
2022-11-14T02:37:07.764Z,17.50
2022-11-14T02:39:54.154Z,13.77
2022-11-14T02:42:40.450Z,15.75
2022-11-14T02:45:26.840Z,16.27
2022-11-14T02:48:13.491Z,15.88
2022-11-14T02:50:59.915Z,15.85
2022-11-14T02:53:47.390Z,16.27
2022-11-14T02:56:33.430Z,14.63
2022-11-14T02:59:19.808Z,16.35
2022-11-14T03:02:05.797Z,13.80
2022-11-14T03:04:51.926Z,14.15
2022-11-14T03:07:38.123Z,14.07
2022-11-14T03:10:25.920Z,12.98
2022-11-14T03:13:12.524Z,13.00
2022-11-14T03:15:58.966Z,13.38
2022-11-14T03:18:45.110Z,13.32
2022-11-14T03:21:31.477Z,13.57
2022-11-14T03:24:17.617Z,14.70
2022-11-14T03:27:05.320Z,14.02
2022-11-14T03:29:51.570Z,14.43
2022-11-14T03:32:37.637Z,16.73
2022-11-14T03:35:23.737Z,14.10
2022-11-14T03:38:09.736Z,14.05
2022-11-14T03:40:55.772Z,16.05
2022-11-14T03:43:43.263Z,15.50
2022-11-14T03:46:29.611Z,12.57
2022-11-14T03:49:15.529Z,14.68
2022-11-14T03:52:01.826Z,13.30
2022-11-14T03:54:47.945Z,11.85
2022-11-14T03:57:33.937Z,12.38
2022-11-14T04:00:21.749Z,12.00
2022-11-14T04:03:07.824Z,10.88
2022-11-14T04:05:53.986Z,10.90
2022-11-14T04:08:41.435Z,10.75
2022-11-14T04:11:27.915Z,12.02
2022-11-14T04:14:14.072Z,11.00
2022-11-14T04:17:01.597Z,11.88
2022-11-14T04:19:47.868Z,11.90
2022-11-14T04:22:33.969Z,13.93
2022-11-14T04:25:20.140Z,10.05
2022-11-14T04:28:06.343Z,9.68
2022-11-14T04:30:52.784Z,9.10
2022-11-14T04:33:40.522Z,9.77
2022-11-14T04:36:26.622Z,9.85
2022-11-14T04:39:13.039Z,7.45
2022-11-14T04:41:59.423Z,7.80
2022-11-14T04:44:45.515Z,9.43
2022-11-14T04:47:32.124Z,8.13
2022-11-14T04:50:20.031Z,7.65
2022-11-14T04:53:06.743Z,7.53
2022-11-14T04:55:52.863Z,8.18
2022-11-14T04:58:38.965Z,7.03
2022-11-14T05:01:25.165Z,7.38
2022-11-14T05:04:11.757Z,7.38
2022-11-14T05:06:59.267Z,6.53
2022-11-14T05:09:45.793Z,6.40
2022-11-14T05:12:32.350Z,7.15
2022-11-14T05:15:18.716Z,6.05
2022-11-14T05:18:05.234Z,6.78
2022-11-14T05:20:51.498Z,6.47
2022-11-14T05:23:38.929Z,6.97
2022-11-14T05:26:25.190Z,6.47
2022-11-14T05:29:11.225Z,7.15
2022-11-14T05:31:57.845Z,6.90
2022-11-14T05:34:43.854Z,7.10
2022-11-14T05:37:30.034Z,6.70
2022-11-14T05:40:19.160Z,5.75
2022-11-14T05:43:05.386Z,6.50
2022-11-14T05:45:51.553Z,6.32
2022-11-14T05:48:37.769Z,6.80
2022-11-14T05:51:23.785Z,6.93
2022-11-14T05:54:10.354Z,7.32
2022-11-14T05:56:57.890Z,6.95
2022-11-14T05:59:43.943Z,6.68
2022-11-14T06:02:30.163Z,6.55
2022-11-14T06:05:17.079Z,7.70
2022-11-14T06:08:04.126Z,6.70
2022-11-14T06:10:50.284Z,7.20
2022-11-14T06:13:38.056Z,8.07
2022-11-14T06:16:24.643Z,6.63
2022-11-14T06:19:10.816Z,6.18
2022-11-14T06:21:57.080Z,6.30
2022-11-14T06:24:43.060Z,7.78
2022-11-14T06:27:29.084Z,12.88
2022-11-14T06:30:17.017Z,19.73
2022-11-14T06:33:03.300Z,9.13
2022-11-14T06:35:49.409Z,8.52
2022-11-14T06:38:37.341Z,7.63
2022-11-14T06:41:24.010Z,6.68
2022-11-14T06:44:10.885Z,6.28
2022-11-14T06:46:58.413Z,7.35
2022-11-14T06:49:44.523Z,8.27
2022-11-14T06:52:32.172Z,12.23
2022-11-14T06:55:23.944Z,10.77
2022-11-14T06:58:11.284Z,6.10
2022-11-14T07:00:57.873Z,6.10
2022-11-14T07:03:46.317Z,7.30
2022-11-14T07:06:32.550Z,6.55
2022-11-14T07:09:18.825Z,7.38
2022-11-14T07:12:05.234Z,11.43
2022-11-14T07:14:51.662Z,7.00
2022-11-14T07:17:37.840Z,10.40
2022-11-14T07:20:25.613Z,8.77
2022-11-14T07:23:12.110Z,7.32
2022-11-14T07:26:02.143Z,13.70
2022-11-14T07:28:52.851Z,8.57
2022-11-14T07:31:41.674Z,7.45
2022-11-14T07:34:28.040Z,8.95
2022-11-14T07:37:15.722Z,6.97
2022-11-14T07:40:01.829Z,5.57
2022-11-14T07:42:47.964Z,6.10
2022-11-14T07:45:34.191Z,6.15
2022-11-14T07:48:21.844Z,6.70
2022-11-14T07:51:10.966Z,8.80
2022-11-14T07:53:58.779Z,8.35
2022-11-14T07:56:44.971Z,7.55
2022-11-14T07:59:31.128Z,5.68
2022-11-14T08:02:17.248Z,5.82
2022-11-14T08:05:03.495Z,6.18
2022-11-14T08:07:51.726Z,7.63
2022-11-14T08:10:39.542Z,6.32
2022-11-14T08:13:32.232Z,4.70
2022-11-14T08:16:19.452Z,5.57
2022-11-14T08:19:06.191Z,6.18
2022-11-14T08:21:52.148Z,5.75
2022-11-14T08:24:39.692Z,4.75
2022-11-14T08:27:27.234Z,7.03
2022-11-14T08:30:14.704Z,6.90
2022-11-14T08:33:03.265Z,6.65
2022-11-14T08:35:49.716Z,5.40
2022-11-14T08:38:35.688Z,6.38
2022-11-14T08:41:21.892Z,5.35
2022-11-14T08:44:09.441Z,6.43
2022-11-14T08:46:55.629Z,5.72
2022-11-14T08:49:41.792Z,5.38
2022-11-14T08:52:28.091Z,6.95
2022-11-14T08:55:14.286Z,8.63
2022-11-14T08:58:00.538Z,6.15
2022-11-14T09:00:48.133Z,7.40
2022-11-14T09:03:34.734Z,8.02
2022-11-14T09:06:21.075Z,7.28
2022-11-14T09:09:07.375Z,8.68
2022-11-14T09:11:53.644Z,7.00
2022-11-14T09:14:39.888Z,6.00
2022-11-14T09:17:27.863Z,7.70
2022-11-14T09:20:14.034Z,8.93
2022-11-14T09:23:00.429Z,11.75
2022-11-14T09:25:46.884Z,10.68
2022-11-14T09:28:33.297Z,6.63
2022-11-14T09:31:19.966Z,7.90
2022-11-14T09:34:07.722Z,8.00
2022-11-14T09:36:54.883Z,6.95
2022-11-14T09:39:41.463Z,5.82
2022-11-14T09:42:43.841Z,6.68
2022-11-14T09:45:31.022Z,6.43
2022-11-14T09:48:20.700Z,6.22
2022-11-14T09:51:11.621Z,5.95
2022-11-14T09:54:07.446Z,5.53
2022-11-14T09:56:55.005Z,5.63
2022-11-14T09:59:41.163Z,5.90
2022-11-14T10:02:44.689Z,6.43
2022-11-14T10:05:43.171Z,6.60
2022-11-14T10:08:49.557Z,5.35
2022-11-14T10:11:40.487Z,6.35
2022-11-14T10:15:06.758Z,6.00
2022-11-14T10:18:16.234Z,7.10
2022-11-14T10:21:17.018Z,5.55
2022-11-14T10:24:23.381Z,6.18
2022-11-14T10:27:20.128Z,6.80
2022-11-14T10:30:11.672Z,7.88
2022-11-14T10:33:14.602Z,6.60
2022-11-14T10:36:09.722Z,7.70
2022-11-14T10:39:06.246Z,7.32
2022-11-14T10:42:02.012Z,10.00
2022-11-14T10:44:58.244Z,7.18
2022-11-14T10:47:50.128Z,7.05
2022-11-14T10:50:44.991Z,10.65
2022-11-14T10:53:44.769Z,5.40
2022-11-14T10:56:31.165Z,11.50
2022-11-14T10:59:19.308Z,10.15
2022-11-14T11:02:05.362Z,6.55
2022-11-14T11:04:51.453Z,6.30
2022-11-14T11:08:28.238Z,6.03
2022-11-14T11:11:31.438Z,8.27
2022-11-14T11:14:20.217Z,5.38
2022-11-14T11:17:22.458Z,4.47
2022-11-14T11:20:27.449Z,3.30
2022-11-14T11:23:27.567Z,3.17
2022-11-14T11:26:20.338Z,2.28
2022-11-14T11:29:15.435Z,2.83
2022-11-14T11:32:02.958Z,2.63
2022-11-14T11:34:49.305Z,3.83
2022-11-14T11:37:40.938Z,2.78
2022-11-14T11:40:29.157Z,1.80
2022-11-14T11:43:38.268Z,1.85
2022-11-14T11:46:31.353Z,2.08
2022-11-14T11:49:24.639Z,3.45
2022-11-14T11:52:17.068Z,2.22
2022-11-14T11:55:15.283Z,2.85
2022-11-14T11:58:06.328Z,2.17
2022-11-14T12:00:55.453Z,1.38
2022-11-14T12:03:44.141Z,1.15
2022-11-14T12:06:42.133Z,2.67
2022-11-14T12:10:08.298Z,5.47
2022-11-14T12:12:59.765Z,1.70
2022-11-14T12:15:56.692Z,1.50
2022-11-14T12:19:14.520Z,1.60
2022-11-14T12:22:18.342Z,2.10
2022-11-14T12:25:32.828Z,1.33
2022-11-14T12:31:16.942Z,1.60
2022-11-14T12:34:08.228Z,2.17
2022-11-14T12:36:54.397Z,2.58
2022-11-14T12:39:42.291Z,2.20
2022-11-14T12:42:29.133Z,1.75
2022-11-14T12:45:48.716Z,5.82
2022-11-14T12:48:37.345Z,7.70
2022-11-14T12:51:52.253Z,7.13
2022-11-14T12:54:49.150Z,6.80
2022-11-14T12:57:50.114Z,10.43
2022-11-14T13:00:39.327Z,5.95
2022-11-14T13:03:38.469Z,6.03
2022-11-14T13:06:29.267Z,8.45
2022-11-14T13:09:33.711Z,9.35
2022-11-14T13:12:46.554Z,6.90
2022-11-14T13:15:52.553Z,7.45
2022-11-14T13:19:09.917Z,8.43
2022-11-14T13:22:32.951Z,8.30
2022-11-14T13:25:22.873Z,7.25
2022-11-14T13:28:46.330Z,7.05
2022-11-14T13:31:51.602Z,7.00
2022-11-14T13:34:43.034Z,7.03
2022-11-14T13:37:47.561Z,6.63
2022-11-14T13:40:37.717Z,7.43
2022-11-14T13:43:35.277Z,7.65
2022-11-14T13:46:34.195Z,6.60
2022-11-14T13:49:39.581Z,7.57
2022-11-14T13:52:29.413Z,7.28
2022-11-14T13:55:22.474Z,7.30
2022-11-14T13:58:23.136Z,7.80
2022-11-14T14:01:22.888Z,7.78
2022-11-14T14:04:22.140Z,10.13
2022-11-14T14:07:16.534Z,8.98
2022-11-14T14:10:14.166Z,7.35
2022-11-14T14:13:16.854Z,7.03
2022-11-14T14:16:10.286Z,7.78
2022-11-14T14:19:07.939Z,6.22
2022-11-14T14:22:02.747Z,8.10
2022-11-14T14:24:57.364Z,8.80
2022-11-14T14:27:56.958Z,8.52
2022-11-14T14:31:01.909Z,11.23
2022-11-14T14:33:50.452Z,13.40
2022-11-14T14:36:36.854Z,14.35
2022-11-14T14:39:26.557Z,24.25
2022-11-14T14:42:13.112Z,10.70
2022-11-14T14:45:00.158Z,10.10
2022-11-14T14:47:49.455Z,10.82
2022-11-14T14:50:41.372Z,9.10
2022-11-14T14:53:29.813Z,9.32
2022-11-14T14:56:21.541Z,9.07
2022-11-14T14:59:19.030Z,9.20
2022-11-14T15:02:05.146Z,12.75
2022-11-14T15:04:51.236Z,10.13
2022-11-14T15:07:40.346Z,9.48
2022-11-14T15:10:30.488Z,10.00
2022-11-14T15:13:19.341Z,11.05
2022-11-14T15:16:07.754Z,9.77
2022-11-14T15:18:56.366Z,8.43
2022-11-14T15:21:43.928Z,18.17
2022-11-14T15:24:30.841Z,16.42
2022-11-14T15:27:19.268Z,16.67
2022-11-14T15:30:20.693Z,17.38
2022-11-14T15:33:26.970Z,15.52
2022-11-14T15:36:16.996Z,18.40
2022-11-14T15:39:05.803Z,19.17
2022-11-14T15:42:15.852Z,10.05
2022-11-14T15:45:02.127Z,9.95
2022-11-14T15:47:50.528Z,8.38
2022-11-14T15:50:36.662Z,8.75
2022-11-14T15:53:24.654Z,8.32
2022-11-14T15:56:13.231Z,22.02
2022-11-14T15:58:59.730Z,12.50
2022-11-14T16:01:48.241Z,15.77
2022-11-14T16:04:37.364Z,12.40
2022-11-14T16:07:23.730Z,8.80
2022-11-14T16:10:15.547Z,8.77
2022-11-14T16:13:01.988Z,9.73
2022-11-14T16:15:48.122Z,10.20
2022-11-14T16:18:34.418Z,7.63
2022-11-14T16:21:22.092Z,8.65
2022-11-14T16:24:15.126Z,10.38
2022-11-14T16:27:01.567Z,9.32
2022-11-14T16:29:47.754Z,10.10
2022-11-14T16:32:33.945Z,7.45
2022-11-14T16:35:21.298Z,8.10
2022-11-14T16:38:13.279Z,12.80
2022-11-14T16:41:00.267Z,9.57
2022-11-14T16:43:46.599Z,8.45
2022-11-14T16:46:32.769Z,10.50
2022-11-14T16:49:19.674Z,21.38
2022-11-14T16:52:08.614Z,21.08
2022-11-14T16:54:56.278Z,19.88
2022-11-14T16:57:42.397Z,11.25
2022-11-14T17:00:28.602Z,10.73
2022-11-14T17:03:15.405Z,17.75
2022-11-14T17:06:01.516Z,12.98
2022-11-14T17:08:47.828Z,11.13
2022-11-14T17:11:36.063Z,10.77
2022-11-14T17:14:22.010Z,10.27
2022-11-14T17:17:08.205Z,7.93
2022-11-14T17:19:54.419Z,10.07
2022-11-14T17:22:40.481Z,9.13
2022-11-14T17:25:26.728Z,7.40
2022-11-14T17:28:14.324Z,7.15
2022-11-14T17:31:00.923Z,11.90
2022-11-14T17:33:52.226Z,11.57
2022-11-14T17:36:38.437Z,12.77
2022-11-14T17:39:24.941Z,15.35
2022-11-14T17:42:11.336Z,11.85
2022-11-14T17:45:00.912Z,10.07
2022-11-14T17:47:46.942Z,7.85
2022-11-14T17:50:37.439Z,8.82
2022-11-14T17:53:24.331Z,9.30
2022-11-14T17:56:14.101Z,9.52
2022-11-14T17:59:00.639Z,8.60
2022-11-14T18:01:48.660Z,10.07
2022-11-14T18:04:34.905Z,11.63
2022-11-14T18:07:21.553Z,12.65
2022-11-14T18:10:08.642Z,10.98
2022-11-14T18:12:55.117Z,10.52
2022-11-14T18:15:41.310Z,12.82
2022-11-14T18:18:30.547Z,16.38
2022-11-14T18:21:18.703Z,12.68
2022-11-14T18:24:05.670Z,13.65
2022-11-14T18:26:52.045Z,16.27
2022-11-14T18:29:38.316Z,24.48
2022-11-14T18:32:24.512Z,27.92
2022-11-14T18:35:12.673Z,18.23
2022-11-14T18:37:59.213Z,18.02
2022-11-14T18:40:45.323Z,20.42
2022-11-14T18:43:33.268Z,14.25
2022-11-14T18:46:22.531Z,14.23
2022-11-14T18:49:08.867Z,13.52
2022-11-14T18:51:56.804Z,13.75
2022-11-14T18:54:42.945Z,17.88
2022-11-14T18:57:29.097Z,20.17
2022-11-14T19:00:16.196Z,18.92
2022-11-14T19:03:05.966Z,23.02
2022-11-14T19:05:52.367Z,30.38
2022-11-14T19:08:40.091Z,24.15
2022-11-14T19:11:43.695Z,21.33
2022-11-14T19:14:30.087Z,24.73
2022-11-14T19:17:20.581Z,16.80
2022-11-14T19:20:13.966Z,17.95
2022-11-14T19:23:00.196Z,18.70
2022-11-14T19:25:47.671Z,16.50
2022-11-14T19:28:34.138Z,19.35
2022-11-14T19:31:21.168Z,19.00
2022-11-14T19:34:07.759Z,17.17
2022-11-14T19:37:01.990Z,19.65
2022-11-14T19:39:52.207Z,15.25
2022-11-14T19:42:39.767Z,15.32
2022-11-14T19:45:25.744Z,15.43
2022-11-14T19:48:11.754Z,18.73
2022-11-14T19:51:02.816Z,21.40
2022-11-14T19:53:49.995Z,25.77
2022-11-14T19:56:36.064Z,19.80
2022-11-14T19:59:24.818Z,15.75
2022-11-14T20:02:13.848Z,23.13
2022-11-14T20:05:00.222Z,20.23
2022-11-14T20:07:46.310Z,19.48
2022-11-14T20:10:47.220Z,32.92
2022-11-14T20:13:35.247Z,22.88
2022-11-14T20:16:24.660Z,20.17
2022-11-14T20:19:10.695Z,20.70
2022-11-14T20:21:56.811Z,21.83
2022-11-14T20:24:43.002Z,19.38
2022-11-14T20:27:29.265Z,17.92
2022-11-14T20:30:16.078Z,20.20
2022-11-14T20:33:03.546Z,18.63
2022-11-14T20:35:49.898Z,24.83
2022-11-14T20:38:36.255Z,17.05
2022-11-14T20:41:22.904Z,23.30
2022-11-14T20:44:09.551Z,19.58
2022-11-14T20:46:56.869Z,19.13
2022-11-14T20:49:45.000Z,21.65
2022-11-14T20:52:31.491Z,21.23
2022-11-14T20:55:18.389Z,16.52
2022-11-14T20:58:04.668Z,16.92
2022-11-14T21:00:51.170Z,22.55
2022-11-14T21:03:37.558Z,31.77
2022-11-14T21:06:24.890Z,23.50
2022-11-14T21:09:10.986Z,19.23
2022-11-14T21:11:57.139Z,15.88
2022-11-14T21:14:43.379Z,17.90
2022-11-14T21:17:31.317Z,17.85
2022-11-14T21:20:17.902Z,16.27
2022-11-14T21:23:05.358Z,18.02
2022-11-14T21:25:51.490Z,24.23
2022-11-14T21:28:42.136Z,20.95
2022-11-14T21:31:31.788Z,25.25
2022-11-14T21:34:18.490Z,20.77
2022-11-14T21:37:04.807Z,24.38
2022-11-14T21:39:52.524Z,23.80
2022-11-14T21:42:39.731Z,26.17
2022-11-14T21:45:28.400Z,24.40
2022-11-14T21:48:14.231Z,25.80
2022-11-14T21:51:05.307Z,25.52
2022-11-14T21:53:54.935Z,25.75
2022-11-14T21:56:42.594Z,26.73
2022-11-14T21:59:28.967Z,24.35
2022-11-14T22:02:32.826Z,31.48
2022-11-14T22:05:19.323Z,23.50
2022-11-14T22:08:05.813Z,24.73
2022-11-14T22:10:52.045Z,23.20
2022-11-14T22:13:39.551Z,22.42
2022-11-14T22:16:25.906Z,18.83
2022-11-14T22:19:11.831Z,31.88
2022-11-14T22:21:58.135Z,24.33
2022-11-14T22:24:44.071Z,27.52
2022-11-14T22:27:30.135Z,23.45
2022-11-14T22:30:17.662Z,17.10
2022-11-14T22:33:03.533Z,16.27
2022-11-14T22:35:49.630Z,19.35
2022-11-14T22:38:37.031Z,16.27
2022-11-14T22:41:30.530Z,16.85
2022-11-14T22:44:18.411Z,22.02
2022-11-14T22:47:05.870Z,23.15
2022-11-14T22:49:52.234Z,21.73
2022-11-14T22:52:38.379Z,20.52
2022-11-14T22:55:24.550Z,25.08
2022-11-14T22:58:10.922Z,21.38
2022-11-14T23:00:57.041Z,21.88
2022-11-14T23:03:44.623Z,19.92
2022-11-14T23:06:33.125Z,18.88
2022-11-14T23:09:18.955Z,18.25
2022-11-14T23:12:05.694Z,20.70
2022-11-14T23:14:51.723Z,21.17
2022-11-14T23:17:38.010Z,17.67
2022-11-14T23:20:25.466Z,17.67
2022-11-14T23:23:11.693Z,16.08
2022-11-14T23:25:57.945Z,19.02
2022-11-14T23:28:45.558Z,17.20
2022-11-14T23:31:31.747Z,17.52
2022-11-14T23:34:17.916Z,17.08
2022-11-14T23:37:05.435Z,18.50
2022-11-14T23:39:51.680Z,17.85
2022-11-14T23:42:37.856Z,17.00
2022-11-14T23:45:24.155Z,17.13
2022-11-14T23:48:10.477Z,14.70
2022-11-14T23:50:59.850Z,16.25
2022-11-14T23:53:47.690Z,16.65
2022-11-14T23:56:33.791Z,17.83
2022-11-14T23:59:19.835Z,19.90
